This is the latest recevied weather packets stored in our database for station/object Wangen. If no packets are shown the sender has not sent any weather packets the latest 10 day(s).
| Time | Temp. | Humidity | Pressure | Rain* | Wind** | Luminosity | Snow |
|---|---|---|---|---|---|---|---|
| 1778083330 | 10.56° C | 92% | 1007.6 hPa | 0.25 mm | - | - | - |
| 1778081531 | 10° C | 91% | 1007.2 hPa | 0 mm | - | - | - |
| 1778079730 | 10° C | 90% | 1007.2 hPa | 0 mm | - | - | - |
| 1778077930 | 11.11° C | 82% | 1006.6 hPa | 0 mm | - | - | - |
| 1778076131 | 16.67° C | 75% | 1004.7 hPa | 0 mm | - | - | - |
| 1778074331 | 16.11° C | 81% | 1004.4 hPa | 0 mm | - | - | - |
| 1778072531 | 14.44° C | 87% | 1004.1 hPa | 0.25 mm | - | - | - |
| 1778070730 | 15° C | 81% | 1004.7 hPa | 0 mm | - | - | - |
| 1778068930 | 16.11° C | 75% | 1004 hPa | 0 mm | - | - | - |
| 1778067137 | 16.67° C | 70% | 1004 hPa | 0 mm | - | - | - |
| 1778065331 | 16.67° C | 67% | 1004.3 hPa | 0 mm | - | - | - |
| 1778061734 | 16.11° C | 72% | 1004.5 hPa | 0 mm | - | - | - |
| 1778059931 | 14.44° C | 77% | 1004.7 hPa | 0 mm | - | - | - |
| 1778058131 | 14.44° C | 80% | 1005 hPa | 0 mm | - | - | - |
| 1778056331 | 13.89° C | 88% | 1005.1 hPa | 0 mm | - | - | - |
| 1778054532 | 12.22° C | 93% | 1005 hPa | 0 mm | - | - | - |
| 1778052731 | 11.67° C | 93% | 1005.1 hPa | 0 mm | - | - | - |
| 1778050932 | 11.11° C | 94% | 1004.9 hPa | 0 mm | - | - | - |
| 1778049132 | 10.56° C | 95% | 1005.5 hPa | 0 mm | - | - | - |
| 1778047331 | 10° C | 95% | 1005.4 hPa | 0 mm | - | - | - |
| 1778045531 | 9.44° C | 95% | 1005.5 hPa | 0 mm | - | - | - |
| 1778043731 | 8.89° C | 95% | 1005.7 hPa | 0 mm | - | - | - |
| 1778041932 | 8.89° C | 95% | 1005.9 hPa | 0 mm | - | - | - |
| 1778040131 | 8.89° C | 95% | 1006.2 hPa | 0 mm | - | - | - |
| 1778038331 | 8.89° C | 95% | 1006.5 hPa | 0 mm | - | - | - |
* Rain since midnight (hover to see other rain measurements)
** Current wind speed in m/s (hover to see current wind gust speed)